• pl
  • eng

Awiacja
NEWS
last updated: 12.09.2019 14:49<\/div>
Dear users,
We would like to inform you that from September 2nd a test form of the GAFOR forecast is available on our webpage. Please send your comments and suggestions to gafor@imgw.pl that will contribute to product development.
METAR messages from military airports. 07:01 10.04.2020

METAR EPCE 100500Z 00000KT CAVOK M02/M03
Q1024 RMK M019 096 0/0=

METAR EPDA 100500Z 28006KT 240V310 CAVOK 06/03
Q1025 RMK 057 084 0/0=

METAR EPDE 100500Z 30006KT 9999 FEW200 04/01 Q1024 RMK 041 082 1/1=

METAR EPIR 100500Z VRB02KT 9999 NSC 02/M03 Q1025 RMK 018 071 3/3=

METAR COR EPKS 100430Z 25002KT 9999 NSC 01/M02 Q1026 RMK 009 079 2/2=

METAR EPLK 100500Z VRB01KT 9999 NSC 01/M00 Q1025 RMK 012 090 3/3=

METAR EPLY 100500Z 24002KT 9999 NSC 02/M00 Q1025 RMK 018 085 3/3=

METAR EPMB 100500Z 25004KT 9999 NSC M01/M02 Q1024 RMK M008 089 0/0=

METAR COR EPMI 100500Z VRB01KT 9999 NSC M01/M02 Q1026 RMK M011
091 3/3=
773
SAPL97 SOPR 100500 RRB

METAR EPMM 100500Z 35004KT 320V020 9999 FEW070 03/02 Q1024 RMK 028
093 1/1=

METAR EPNA 100500Z 00000KT 9999 SCT200 M02/M04 Q1025 RMK M021 088
4/4=

METAR EPOK 100500Z 31005KT 280V340 CAVOK 04/01
Q1024 RMK 037 085 0/0=

METAR EPPR 100500Z 00000KT 9999 NSC 00/M03 Q1024 RMK 000 080 0/0=

METAR EPPW 100500Z 28004KT 9999 NSC 01/M03 Q1025 RMK 006 079 4/4=

METAR EPRA 100500Z 32004KT 9999 NSC 05/02 Q1024 RMK 048 080 2/2=

METAR EPSN 100500Z 25004KT 9999 FEW200 00/M01 Q1025 RMK 000 094 2/2=

METAR EPTM 100500Z 28002KT 9999 NSC 04/01 Q1025 RMK 041 080 3/3=
Awiacja.imgw.pl jest pogodowym serwisem informacyjnym
Instytutu Meteorologii i Gospodarki Wodnej Państwowego Instytutu Badawczego.
Copyright IMGW PIB 2009-2019© Wszelkie prawa zastrzeżone.